Time;durP1;ratioP1;P1;durP2;ratioP2;P2;SDS_P1;SDS_P2;PMS_P1;PMS_P2;Temp;Humidity;BMP_temperature;BMP_pressure;BME280_temperature;BME280_humidity;BME280_pressure;Samples;Min_cycle;Max_cycle;Signal;HPM_P1;HPM_P2
2023/02/20 00:00:36;;;;;;;23.83;12.10;;;7.10;99.80;;;;;;5080392;28;20067;-75
2023/02/20 00:03:02;;;;;;;17.75;11.65;;;7.20;99.90;;;;;;5090905;28;20095;-75
2023/02/20 00:05:27;;;;;;;19.80;11.75;;;7.10;99.90;;;;;;5078704;28;20021;-75
2023/02/20 00:07:53;;;;;;;23.42;12.55;;;7.20;99.90;;;;;;5088602;28;20445;-76
2023/02/20 00:10:19;;;;;;;19.67;13.15;;;7.20;99.90;;;;;;5087527;28;20028;-76
2023/02/20 00:12:47;;;;;;;20.75;12.75;;;7.20;99.90;;;;;;5087734;28;20047;-75
2023/02/20 00:15:18;;;;;;;23.55;13.90;;;7.10;99.90;;;;;;5088533;28;20045;-75
2023/02/20 00:17:46;;;;;;;21.08;13.82;;;7.20;99.90;;;;;;5081794;28;20074;-75
2023/02/20 00:20:20;;;;;;;22.65;14.48;;;7.20;99.90;;;;;;5073971;28;20927;-74
2023/02/20 00:22:45;;;;;;;22.50;14.25;;;7.20;99.90;;;;;;5080301;28;20024;-75
2023/02/20 00:25:11;;;;;;;25.42;16.10;;;7.20;99.90;;;;;;5072438;28;20016;-77
2023/02/20 00:27:37;;;;;;;23.23;16.30;;;7.20;99.90;;;;;;5084333;28;20047;-75
2023/02/20 00:30:04;;;;;;;21.17;13.65;;;7.20;99.90;;;;;;5088859;28;20107;-76
2023/02/20 00:32:29;;;;;;;24.63;16.15;;;7.20;99.90;;;;;;5080575;28;20024;-75
2023/02/20 00:34:55;;;;;;;29.83;16.50;;;7.20;99.90;;;;;;5090358;28;20031;-75
2023/02/20 00:37:21;;;;;;;22.52;15.68;;;7.30;99.90;;;;;;5078464;28;20029;-75
2023/02/20 00:39:46;;;;;;;25.55;15.43;;;7.20;99.90;;;;;;5071565;28;20024;-75
2023/02/20 00:42:12;;;;;;;26.23;16.88;;;7.20;99.90;;;;;;5078351;28;20169;-74
2023/02/20 00:44:38;;;;;;;25.55;16.52;;;7.30;99.90;;;;;;5071029;28;20021;-74
2023/02/20 00:47:04;;;;;;;34.28;17.08;;;7.20;99.90;;;;;;5076402;28;20032;-75
2023/02/20 00:49:29;;;;;;;23.90;16.52;;;7.30;99.90;;;;;;5086896;28;20039;-75
2023/02/20 00:51:55;;;;;;;32.17;17.48;;;7.30;99.90;;;;;;5081607;28;20020;-75
2023/02/20 00:54:20;;;;;;;25.67;17.40;;;7.40;99.90;;;;;;5086948;28;20028;-76
2023/02/20 00:56:46;;;;;;;25.38;15.95;;;7.40;99.90;;;;;;5084922;28;20032;-76
2023/02/20 00:59:13;;;;;;;26.00;16.65;;;7.40;99.90;;;;;;5083156;28;20510;-75
2023/02/20 01:01:38;;;;;;;24.27;15.80;;;7.40;99.90;;;;;;5088086;28;20012;-75
2023/02/20 01:04:04;;;;;;;27.30;16.40;;;7.40;99.90;;;;;;5091087;28;20390;-76
2023/02/20 01:06:30;;;;;;;21.98;15.30;;;7.50;99.80;;;;;;5089630;28;20050;-75
2023/02/20 01:08:56;;;;;;;25.23;14.52;;;7.40;99.80;;;;;;5079530;28;20028;-75
2023/02/20 01:11:22;;;;;;;22.02;15.73;;;7.40;99.90;;;;;;5086724;28;20354;-75
2023/02/20 01:13:48;;;;;;;20.75;14.05;;;7.30;99.90;;;;;;5077937;28;20467;-75
2023/02/20 01:16:13;;;;;;;20.58;12.75;;;7.30;99.90;;;;;;5090663;28;20056;-74
2023/02/20 01:18:39;;;;;;;22.23;15.80;;;7.40;99.90;;;;;;5079468;28;20050;-75
2023/02/20 01:21:04;;;;;;;23.70;15.43;;;7.40;99.90;;;;;;5091162;28;20030;-75
2023/02/20 01:23:30;;;;;;;23.90;13.38;;;7.40;99.80;;;;;;5085068;28;20795;-75
2023/02/20 01:25:56;;;;;;;23.30;14.68;;;7.30;99.80;;;;;;5070083;28;20051;-75
2023/02/20 01:28:21;;;;;;;26.50;16.35;;;7.40;99.80;;;;;;5080255;28;20036;-75
2023/02/20 01:30:47;;;;;;;21.48;12.35;;;7.40;99.80;;;;;;5072760;28;20024;-75
2023/02/20 01:33:13;;;;;;;21.67;14.43;;;7.40;99.80;;;;;;5076481;28;20048;-76
2023/02/20 01:35:38;;;;;;;23.88;13.13;;;7.40;99.80;;;;;;5074761;28;20078;-76
2023/02/20 01:38:05;;;;;;;22.40;13.82;;;7.30;99.80;;;;;;5073332;28;20032;-75
2023/02/20 01:40:33;;;;;;;23.10;15.55;;;7.30;99.90;;;;;;5082730;28;20027;-76
2023/02/20 01:42:58;;;;;;;24.02;14.32;;;7.30;99.90;;;;;;5080786;28;20441;-75
2023/02/20 01:45:24;;;;;;;26.27;15.23;;;7.30;99.90;;;;;;5079926;28;20127;-75
2023/02/20 01:47:52;;;;;;;25.00;14.77;;;7.30;99.90;;;;;;5088632;28;20020;-75
2023/02/20 01:50:21;;;;;;;24.70;15.55;;;7.30;99.90;;;;;;5078374;28;20481;-75
2023/02/20 01:52:50;;;;;;;24.93;14.90;;;7.40;99.90;;;;;;5087951;28;20071;-76
2023/02/20 01:55:30;;;;;;;27.10;14.95;;;7.30;99.90;;;;;;5076644;28;20027;-75
2023/02/20 01:58:09;;;;;;;22.75;14.50;;;7.30;99.90;;;;;;5070977;28;20025;-75
2023/02/20 02:00:36;;;;;;;22.13;14.33;;;7.30;99.90;;;;;;5081773;28;20045;-75
2023/02/20 02:03:11;;;;;;;24.35;14.13;;;7.30;99.90;;;;;;5076588;28;20025;-76
2023/02/20 02:05:42;;;;;;;23.88;14.45;;;7.30;99.90;;;;;;5080675;28;20033;-75
2023/02/20 02:08:09;;;;;;;27.10;16.42;;;7.30;99.90;;;;;;5084135;28;20051;-76
2023/02/20 02:10:48;;;;;;;23.27;15.57;;;7.30;99.90;;;;;;5086489;28;20032;-75
2023/02/20 02:13:13;;;;;;;29.15;16.55;;;7.30;99.90;;;;;;5088588;28;20020;-75
2023/02/20 02:15:39;;;;;;;28.98;16.20;;;7.30;99.90;;;;;;5081764;28;20047;-76
2023/02/20 02:18:37;;;;;;;21.20;13.15;;;7.30;99.90;;;;;;5080095;28;20421;-75
2023/02/20 02:21:39;;;;;;;22.80;14.90;;;7.30;99.90;;;;;;5078425;28;20052;-75
2023/02/20 02:24:41;;;;;;;28.27;15.80;;;7.30;99.90;;;;;;5086554;28;20089;-76
2023/02/20 02:27:22;;;;;;;25.92;15.82;;;7.30;99.90;;;;;;5079126;28;20139;-76
2023/02/20 02:30:24;;;;;;;24.95;16.33;;;7.20;99.90;;;;;;5075384;28;20020;-74
2023/02/20 02:33:02;;;;;;;31.02;17.00;;;7.20;99.90;;;;;;5072652;28;20017;-76
2023/02/20 02:35:46;;;;;;;30.15;16.80;;;7.30;99.90;;;;;;5078744;28;20501;-76
2023/02/20 02:38:36;;;;;;;23.70;14.32;;;7.30;99.90;;;;;;5081039;28;20067;-75
2023/02/20 02:41:13;;;;;;;28.08;17.05;;;7.30;99.90;;;;;;5082452;28;20029;-76
2023/02/20 02:43:51;;;;;;;30.27;15.65;;;7.40;99.90;;;;;;5069052;28;20455;-75
2023/02/20 02:46:47;;;;;;;29.02;15.88;;;7.40;99.90;;;;;;5075985;28;21603;-76
2023/02/20 02:49:31;;;;;;;29.45;16.75;;;7.30;99.90;;;;;;5069531;28;20021;-75
2023/02/20 02:51:59;;;;;;;27.88;16.27;;;7.40;99.90;;;;;;5082155;28;20035;-75
2023/02/20 02:54:27;;;;;;;21.75;14.10;;;7.40;99.90;;;;;;5089354;28;20055;-75
2023/02/20 02:57:24;;;;;;;33.85;17.65;;;7.40;99.90;;;;;;5074515;28;20037;-76
2023/02/20 02:59:56;;;;;;;29.60;17.38;;;7.40;99.90;;;;;;5088921;28;20054;-75
2023/02/20 03:02:24;;;;;;;32.78;17.95;;;7.50;99.90;;;;;;5071407;28;20039;-75
2023/02/20 03:04:53;;;;;;;33.47;19.73;;;7.50;99.90;;;;;;5071124;28;20471;-75
2023/02/20 03:07:20;;;;;;;46.10;24.77;;;7.50;99.90;;;;;;5085023;28;20021;-75
2023/02/20 03:09:56;;;;;;;36.20;22.27;;;7.40;99.90;;;;;;5085521;28;20024;-75
2023/02/20 03:12:27;;;;;;;37.60;22.85;;;7.40;99.90;;;;;;5086744;28;20021;-75
2023/02/20 03:18:09;;;;;;;43.90;24.15;;;7.40;99.90;;;;;;5075462;28;20525;-75
2023/02/20 03:20:37;;;;;;;45.22;26.50;;;7.40;99.90;;;;;;5087819;28;20085;-75
2023/02/20 03:23:04;;;;;;;50.00;26.55;;;7.40;99.90;;;;;;5083716;28;20028;-75
2023/02/20 03:25:38;;;;;;;42.42;27.63;;;7.50;99.90;;;;;;5072680;28;20030;-76
2023/02/20 03:28:09;;;;;;;43.20;27.70;;;7.40;99.90;;;;;;5079923;28;20024;-76
2023/02/20 03:30:51;;;;;;;45.25;28.48;;;7.50;99.90;;;;;;5072819;28;20120;-75
2023/02/20 03:44:40;;;;;;;50.72;32.33;;;7.60;99.90;;;;;;5084984;28;20047;-75
2023/02/20 03:47:09;;;;;;;58.08;32.50;;;7.60;99.90;;;;;;5087551;28;20036;-75
2023/02/20 03:52:23;;;;;;;52.17;32.33;;;7.60;99.90;;;;;;5075318;28;20043;-74
2023/02/20 03:54:50;;;;;;;62.35;37.15;;;7.60;99.90;;;;;;5081155;28;20095;-74
2023/02/20 03:57:25;;;;;;;64.65;38.88;;;7.60;99.90;;;;;;5078695;28;20028;-75
2023/02/20 04:00:09;;;;;;;53.33;35.35;;;7.60;99.90;;;;;;5076298;28;20024;-76
2023/02/20 04:02:44;;;;;;;70.90;40.67;;;7.60;99.90;;;;;;5084991;28;20109;-75
2023/02/20 04:05:14;;;;;;;61.30;37.90;;;7.50;99.90;;;;;;5079715;28;20036;-75
2023/02/20 04:08:03;;;;;;;61.30;39.95;;;7.60;99.90;;;;;;5071983;28;20021;-74
2023/02/20 04:10:35;;;;;;;57.00;33.97;;;7.60;99.90;;;;;;5070897;28;20024;-75
2023/02/20 04:13:03;;;;;;;63.50;36.22;;;7.70;99.90;;;;;;5073546;28;20059;-75
2023/02/20 04:15:30;;;;;;;66.07;38.80;;;7.70;99.90;;;;;;5079075;28;20112;-75
2023/02/20 04:18:03;;;;;;;66.80;44.15;;;7.80;99.90;;;;;;5073313;28;20911;-75
2023/02/20 04:20:29;;;;;;;70.35;43.20;;;7.70;99.90;;;;;;5081557;28;20031;-76
2023/02/20 04:23:01;;;;;;;69.95;43.03;;;7.70;99.90;;;;;;5088933;28;20029;-76
2023/02/20 04:25:38;;;;;;;71.85;42.72;;;7.80;99.90;;;;;;5080815;28;20020;-76
2023/02/20 04:28:04;;;;;;;65.70;42.00;;;7.70;99.90;;;;;;5081174;28;20107;-75
2023/02/20 04:30:30;;;;;;;68.10;44.17;;;7.80;99.90;;;;;;5079381;28;20016;-76
2023/02/20 04:32:56;;;;;;;58.13;37.10;;;7.80;99.90;;;;;;5090769;28;20035;-76
2023/02/20 04:35:22;;;;;;;68.95;39.42;;;7.80;99.90;;;;;;5078153;28;20028;-75
2023/02/20 04:37:48;;;;;;;68.78;43.20;;;7.80;99.90;;;;;;5088975;28;20469;-76
2023/02/20 04:40:16;;;;;;;67.03;40.63;;;7.80;99.90;;;;;;5080296;28;20029;-75
2023/02/20 04:42:41;;;;;;;67.88;40.08;;;7.70;99.90;;;;;;5092182;28;20020;-75
2023/02/20 04:45:07;;;;;;;64.32;38.42;;;7.80;99.90;;;;;;5089160;28;20032;-75
2023/02/20 04:47:33;;;;;;;66.93;41.15;;;7.80;99.90;;;;;;5071691;28;20052;-75
2023/02/20 04:49:58;;;;;;;74.72;44.55;;;7.70;99.90;;;;;;5078774;28;20061;-76
2023/02/20 04:52:24;;;;;;;67.13;41.10;;;7.80;99.90;;;;;;5087753;28;20734;-75
2023/02/20 04:54:50;;;;;;;56.83;37.50;;;7.80;99.90;;;;;;5083195;28;20012;-76
2023/02/20 04:57:16;;;;;;;74.95;42.55;;;7.80;99.90;;;;;;5084599;28;20051;-75
2023/02/20 04:59:42;;;;;;;69.50;37.10;;;7.90;99.90;;;;;;5078454;28;20113;-74
2023/02/20 05:02:08;;;;;;;66.82;40.15;;;7.90;99.90;;;;;;5091263;28;20023;-75
2023/02/20 05:04:34;;;;;;;65.55;37.83;;;7.90;99.90;;;;;;5089286;28;20016;-75
2023/02/20 05:07:00;;;;;;;69.25;40.03;;;7.90;99.90;;;;;;5075332;28;20848;-75
2023/02/20 05:09:26;;;;;;;64.78;37.95;;;7.90;99.90;;;;;;5088499;28;20104;-75
2023/02/20 05:11:51;;;;;;;65.53;37.08;;;8.00;99.90;;;;;;5079860;28;20020;-76
2023/02/20 05:14:18;;;;;;;69.10;37.70;;;7.90;99.90;;;;;;5090411;28;20436;-75
2023/02/20 05:16:45;;;;;;;60.33;40.53;;;7.90;99.90;;;;;;5078096;28;20104;-76
2023/02/20 05:19:12;;;;;;;56.35;35.50;;;7.90;99.90;;;;;;5091226;28;20095;-76
2023/02/20 05:24:24;;;;;;;62.00;35.88;;;8.00;99.90;;;;;;5077174;28;20043;-76
2023/02/20 05:26:49;;;;;;;63.88;34.20;;;7.90;99.90;;;;;;5085717;28;20028;-76
2023/02/20 05:29:15;;;;;;;45.90;26.55;;;8.00;99.90;;;;;;5086685;28;20028;-75
2023/02/20 05:31:41;;;;;;;58.33;32.33;;;8.10;99.90;;;;;;5089101;28;20027;-76
2023/02/20 05:34:07;;;;;;;56.42;34.17;;;8.00;99.90;;;;;;5071023;28;20025;-76
2023/02/20 05:36:33;;;;;;;58.80;33.15;;;8.10;99.90;;;;;;5079512;28;20387;-76
2023/02/20 05:38:59;;;;;;;48.10;29.80;;;8.00;99.90;;;;;;5074215;28;20082;-77
2023/02/20 05:41:24;;;;;;;45.97;27.25;;;8.10;99.90;;;;;;5075013;28;20032;-74
2023/02/20 05:43:50;;;;;;;53.05;31.08;;;8.10;99.90;;;;;;5077881;28;20028;-75
2023/02/20 05:46:16;;;;;;;45.78;29.63;;;8.10;99.90;;;;;;5087246;28;20024;-75
2023/02/20 05:48:42;;;;;;;54.05;31.00;;;8.10;99.90;;;;;;5077768;28;20059;-75
2023/02/20 05:51:08;;;;;;;51.70;30.23;;;8.10;99.90;;;;;;5071133;28;20116;-74
2023/02/20 05:53:33;;;;;;;53.90;30.70;;;8.10;99.90;;;;;;5078098;28;20640;-76
2023/02/20 05:55:59;;;;;;;50.92;28.05;;;8.10;99.90;;;;;;5079763;28;20130;-75
2023/02/20 05:58:25;;;;;;;53.63;28.63;;;8.20;99.90;;;;;;5077907;28;20016;-75
2023/02/20 06:00:51;;;;;;;49.58;30.55;;;8.20;99.90;;;;;;5088249;28;20112;-75
2023/02/20 06:03:17;;;;;;;53.75;26.80;;;8.20;99.90;;;;;;5074712;28;20067;-75
2023/02/20 06:05:44;;;;;;;47.42;25.52;;;8.20;99.90;;;;;;5088472;28;20028;-74
2023/02/20 06:08:10;;;;;;;46.13;25.30;;;8.20;99.90;;;;;;5076015;28;20098;-74
2023/02/20 06:10:35;;;;;;;49.90;25.52;;;8.30;99.90;;;;;;5071682;28;20021;-75
2023/02/20 06:13:01;;;;;;;50.65;26.95;;;8.30;99.90;;;;;;5080129;28;20031;-76
2023/02/20 06:15:26;;;;;;;58.92;31.20;;;8.30;99.90;;;;;;5083442;28;20051;-75
2023/02/20 06:17:52;;;;;;;46.10;25.83;;;8.30;99.90;;;;;;5084666;28;20031;-75
2023/02/20 06:20:19;;;;;;;55.60;27.48;;;8.40;99.90;;;;;;5089772;28;20109;-75
2023/02/20 06:22:49;;;;;;;52.92;27.33;;;8.40;99.90;;;;;;5076849;28;20016;-76
2023/02/20 06:25:15;;;;;;;51.58;27.35;;;8.40;99.90;;;;;;5089511;28;20103;-76
2023/02/20 06:27:40;;;;;;;47.85;24.98;;;8.40;99.90;;;;;;5084781;28;20016;-75
2023/02/20 06:30:07;;;;;;;47.45;26.15;;;8.40;99.90;;;;;;5070208;28;20029;-73
2023/02/20 06:32:32;;;;;;;60.50;29.92;;;8.40;99.90;;;;;;5071113;28;20069;-75
2023/02/20 06:34:58;;;;;;;57.72;28.48;;;8.40;99.90;;;;;;5080047;28;20021;-74
2023/02/20 06:37:24;;;;;;;52.88;27.20;;;8.40;99.90;;;;;;5070650;28;20031;-75
2023/02/20 06:39:49;;;;;;;69.45;34.65;;;8.40;99.90;;;;;;5077951;28;20016;-75
2023/02/20 06:42:15;;;;;;;57.10;29.75;;;8.50;99.90;;;;;;5090632;28;20031;-74
2023/02/20 06:44:41;;;;;;;54.97;29.92;;;8.50;99.90;;;;;;5072570;28;20070;-75
2023/02/20 06:47:08;;;;;;;49.13;29.58;;;8.50;99.90;;;;;;5086483;28;20032;-75
2023/02/20 06:49:37;;;;;;;52.50;28.17;;;8.50;99.90;;;;;;5081636;28;20016;-75
2023/02/20 06:52:04;;;;;;;54.07;27.57;;;8.50;99.90;;;;;;5079825;28;20112;-75
2023/02/20 06:54:30;;;;;;;49.25;28.38;;;8.50;99.90;;;;;;5084987;28;20048;-75
2023/02/20 06:56:56;;;;;;;47.85;24.33;;;8.50;99.90;;;;;;5085046;28;20067;-75
2023/02/20 06:59:22;;;;;;;51.80;28.73;;;8.50;99.90;;;;;;5074579;28;20044;-75
2023/02/20 07:01:48;;;;;;;45.15;26.77;;;8.50;99.90;;;;;;5076592;28;20029;-75
2023/02/20 07:04:15;;;;;;;53.95;25.30;;;8.60;99.90;;;;;;5074306;28;20391;-75
2023/02/20 07:06:41;;;;;;;42.42;23.00;;;8.60;99.90;;;;;;5071393;28;20037;-75
2023/02/20 07:09:07;;;;;;;48.08;25.38;;;8.70;99.90;;;;;;5072005;28;20044;-73
2023/02/20 07:11:33;;;;;;;49.05;25.45;;;8.70;99.90;;;;;;5085957;28;20032;-75
2023/02/20 07:13:58;;;;;;;44.72;22.60;;;8.70;99.90;;;;;;5084966;28;20066;-75
2023/02/20 07:16:24;;;;;;;40.92;24.08;;;8.70;99.90;;;;;;5077739;28;20400;-75
2023/02/20 07:18:49;;;;;;;56.20;26.35;;;8.70;99.90;;;;;;5071196;28;20047;-76
2023/02/20 07:21:15;;;;;;;52.35;25.40;;;8.70;99.90;;;;;;5081340;28;20059;-74
2023/02/20 07:23:43;;;;;;;43.15;22.83;;;8.70;99.90;;;;;;5088710;28;20028;-76
2023/02/20 07:26:20;;;;;;;44.03;24.83;;;8.70;99.90;;;;;;5080670;28;20111;-73
2023/02/20 07:28:47;;;;;;;49.03;23.13;;;8.70;99.90;;;;;;5069762;28;20779;-75
2023/02/20 07:31:13;;;;;;;47.60;25.42;;;8.80;99.90;;;;;;5068365;28;20021;-76
2023/02/20 07:33:41;;;;;;;47.83;26.67;;;8.70;99.90;;;;;;5070733;28;20031;-75
2023/02/20 07:36:07;;;;;;;42.33;24.98;;;8.70;99.90;;;;;;5074890;28;20557;-76
2023/02/20 07:38:33;;;;;;;52.22;27.83;;;8.70;99.90;;;;;;5076022;28;20031;-75
2023/02/20 07:40:58;;;;;;;48.50;27.10;;;8.70;99.90;;;;;;5079368;28;20120;-74
2023/02/20 07:43:24;;;;;;;44.80;27.75;;;8.70;99.90;;;;;;5077460;28;20097;-76
2023/02/20 07:45:50;;;;;;;54.92;31.38;;;8.70;99.90;;;;;;5075790;28;20016;-75
2023/02/20 07:48:15;;;;;;;54.67;30.63;;;8.80;99.90;;;;;;5081395;28;20016;-75
2023/02/20 07:50:41;;;;;;;48.55;27.13;;;8.80;99.90;;;;;;5075257;28;20028;-75
2023/02/20 07:53:08;;;;;;;58.78;29.98;;;8.80;99.90;;;;;;5079724;28;20025;-77
2023/02/20 07:55:34;;;;;;;56.00;30.30;;;8.80;99.90;;;;;;5077499;28;20024;-76
2023/02/20 07:57:59;;;;;;;57.60;30.05;;;8.80;99.90;;;;;;5077015;28;20034;-75
2023/02/20 08:00:26;;;;;;;48.72;29.13;;;8.80;99.90;;;;;;5080816;28;21047;-76
2023/02/20 08:02:52;;;;;;;51.35;28.15;;;8.90;99.90;;;;;;5077565;28;20016;-77
2023/02/20 08:05:18;;;;;;;53.47;29.55;;;8.90;99.90;;;;;;5078258;28;20043;-76
2023/02/20 08:07:48;;;;;;;50.75;30.20;;;8.80;99.90;;;;;;5076595;28;20030;-77
2023/02/20 08:10:17;;;;;;;43.85;27.92;;;8.80;99.90;;;;;;5080187;28;20514;-75
2023/02/20 08:12:43;;;;;;;54.28;30.08;;;8.90;99.90;;;;;;5076301;28;20471;-76
2023/02/20 08:15:11;;;;;;;53.65;29.25;;;8.90;99.90;;;;;;5077340;28;20024;-76
2023/02/20 08:17:38;;;;;;;55.78;30.25;;;8.90;99.90;;;;;;5080209;28;20546;-76
2023/02/20 08:20:07;;;;;;;52.28;31.40;;;9.00;99.90;;;;;;5081040;28;20031;-78
2023/02/20 08:22:33;;;;;;;47.28;28.42;;;9.00;99.90;;;;;;5083995;28;20029;-77
2023/02/20 08:24:59;;;;;;;46.17;27.85;;;9.00;99.90;;;;;;5085727;28;20042;-78
2023/02/20 08:27:26;;;;;;;57.00;30.02;;;9.00;99.90;;;;;;5072887;28;20036;-76
2023/02/20 08:29:53;;;;;;;48.60;27.20;;;9.00;99.90;;;;;;5076178;28;20055;-77
2023/02/20 08:32:18;;;;;;;44.22;27.35;;;9.10;99.90;;;;;;5073865;28;20495;-74
2023/02/20 08:34:44;;;;;;;51.10;29.90;;;9.10;99.90;;;;;;5073427;28;20097;-75
2023/02/20 08:37:10;;;;;;;45.33;27.63;;;9.10;99.90;;;;;;5072655;28;20032;-77
2023/02/20 08:39:36;;;;;;;53.50;27.80;;;9.00;99.90;;;;;;5075491;28;20021;-75
2023/02/20 08:42:02;;;;;;;44.38;26.70;;;9.00;99.90;;;;;;5077283;28;20028;-76
2023/02/20 08:44:28;;;;;;;49.10;28.98;;;9.00;99.90;;;;;;5074077;28;20568;-74
2023/02/20 08:46:53;;;;;;;48.08;25.50;;;9.10;99.90;;;;;;5072940;28;20111;-75
2023/02/20 08:49:19;;;;;;;47.47;27.67;;;9.10;99.90;;;;;;5072035;28;20036;-74
2023/02/20 08:51:47;;;;;;;48.70;26.00;;;9.20;99.90;;;;;;5077479;28;20457;-74
2023/02/20 08:54:15;;;;;;;40.60;25.15;;;9.10;99.90;;;;;;5074620;28;20023;-77
2023/02/20 08:56:44;;;;;;;47.08;27.85;;;9.10;99.90;;;;;;5073852;28;20040;-74
2023/02/20 08:59:11;;;;;;;46.55;28.40;;;9.10;99.90;;;;;;5074492;28;20028;-74
2023/02/20 09:01:41;;;;;;;46.22;28.60;;;9.10;99.90;;;;;;5077196;28;20094;-74
2023/02/20 09:04:09;;;;;;;46.28;27.55;;;9.20;99.90;;;;;;5076747;28;20067;-73
2023/02/20 09:06:35;;;;;;;41.40;28.13;;;9.20;99.90;;;;;;5073921;28;20027;-74
2023/02/20 09:09:01;;;;;;;48.03;26.33;;;9.20;99.90;;;;;;5079438;28;20036;-73
2023/02/20 09:11:28;;;;;;;44.15;25.48;;;9.20;99.90;;;;;;5086023;28;20039;-73
2023/02/20 09:13:53;;;;;;;42.35;25.27;;;9.20;99.90;;;;;;5074433;28;20069;-75
2023/02/20 09:16:22;;;;;;;42.40;25.67;;;9.20;99.90;;;;;;5070982;28;20530;-75
2023/02/20 09:18:49;;;;;;;47.45;26.58;;;9.30;99.90;;;;;;5081462;28;20016;-75
2023/02/20 09:21:17;;;;;;;44.15;24.70;;;9.30;99.90;;;;;;5079943;28;20024;-75
2023/02/20 09:23:43;;;;;;;44.13;25.70;;;9.30;99.90;;;;;;5077074;28;20016;-73
2023/02/20 09:26:09;;;;;;;46.75;26.00;;;9.30;99.90;;;;;;5084283;28;20027;-75
2023/02/20 09:28:35;;;;;;;44.92;25.88;;;9.30;99.90;;;;;;5078524;28;20099;-73
2023/02/20 09:31:01;;;;;;;41.15;23.23;;;9.40;99.90;;;;;;5076115;28;20043;-73
2023/02/20 09:33:28;;;;;;;34.13;20.70;;;9.30;99.90;;;;;;5072807;28;20025;-73
2023/02/20 09:35:54;;;;;;;40.33;21.90;;;9.40;99.90;;;;;;5076893;28;20036;-74
2023/02/20 09:38:21;;;;;;;42.65;22.63;;;9.40;99.90;;;;;;5081754;28;20073;-74
2023/02/20 09:40:51;;;;;;;39.60;21.67;;;9.30;99.90;;;;;;5083186;28;20372;-73
2023/02/20 09:43:53;;;;;;;33.72;20.38;;;9.30;99.90;;;;;;5072840;28;20596;-74
2023/02/20 09:46:21;;;;;;;38.28;20.77;;;9.40;99.90;;;;;;5081063;28;20020;-75
2023/02/20 09:49:05;;;;;;;48.97;23.63;;;9.40;99.90;;;;;;5075708;28;20074;-75
2023/02/20 09:51:34;;;;;;;40.40;21.48;;;9.40;99.90;;;;;;5076681;28;20024;-76
2023/02/20 09:54:15;;;;;;;36.30;20.17;;;9.40;99.90;;;;;;5083008;28;20024;-73
2023/02/20 09:56:47;;;;;;;50.60;22.83;;;9.40;99.90;;;;;;5076476;28;20055;-75
2023/02/20 09:59:46;;;;;;;43.58;23.05;;;9.40;99.90;;;;;;5083442;28;20021;-73
2023/02/20 10:02:17;;;;;;;53.15;24.08;;;9.40;99.90;;;;;;5075149;28;20082;-74
2023/02/20 10:04:52;;;;;;;51.25;21.88;;;9.40;99.90;;;;;;5079241;28;20100;-74
2023/02/20 10:07:41;;;;;;;40.25;22.05;;;9.30;99.90;;;;;;5072643;28;20548;-75
2023/02/20 10:10:26;;;;;;;35.87;18.60;;;9.30;99.90;;;;;;5078566;28;20069;-73
2023/02/20 10:13:04;;;;;;;35.10;18.23;;;9.40;99.90;;;;;;5075724;28;20047;-74
2023/02/20 10:15:58;;;;;;;36.38;21.23;;;9.40;99.90;;;;;;5080209;28;20044;-75
2023/02/20 10:18:32;;;;;;;32.08;18.42;;;9.40;99.90;;;;;;5080601;28;20028;-73
2023/02/20 10:21:16;;;;;;;43.25;18.80;;;9.30;99.90;;;;;;5077631;28;20020;-74
2023/02/20 10:23:47;;;;;;;39.67;16.70;;;9.30;99.90;;;;;;5075771;28;20024;-75
2023/02/20 10:26:32;;;;;;;29.80;16.27;;;9.40;99.90;;;;;;5074096;28;20131;-74
2023/02/20 10:29:15;;;;;;;28.85;12.57;;;9.40;99.90;;;;;;5074196;28;20024;-75
2023/02/20 10:31:50;;;;;;;31.48;11.32;;;9.40;99.90;;;;;;5075405;28;20032;-73
2023/02/20 10:34:30;;;;;;;30.85;11.75;;;9.40;99.90;;;;;;5072005;28;20579;-73
2023/02/20 10:37:01;;;;;;;;;;;9.40;99.90;;;;;;5074737;28;20038;-74
2023/02/20 10:39:29;;;;;;;25.52;11.18;;;9.40;99.90;;;;;;5081413;28;19958;-74
2023/02/20 10:42:05;;;;;;;25.63;9.95;;;9.50;99.90;;;;;;5079302;28;20516;-76
2023/02/20 10:44:57;;;;;;;24.90;13.50;;;9.50;99.90;;;;;;5071980;28;20079;-74
2023/02/20 10:47:32;;;;;;;26.27;13.27;;;9.60;99.90;;;;;;5075509;28;20039;-75
2023/02/20 10:50:16;;;;;;;28.90;11.52;;;9.60;99.90;;;;;;5079164;28;20020;-74
2023/02/20 10:52:51;;;;;;;36.20;12.10;;;9.60;99.90;;;;;;5075258;28;20067;-75
2023/02/20 10:55:27;;;;;;;27.45;10.82;;;9.60;99.90;;;;;;5070693;28;20503;-75
2023/02/20 10:58:11;;;;;;;23.38;10.25;;;9.60;99.90;;;;;;5073060;28;20028;-74
2023/02/20 11:00:40;;;;;;;35.63;16.48;;;9.60;99.90;;;;;;5074125;28;20478;-75
2023/02/20 11:03:13;;;;;;;31.27;13.27;;;9.70;99.90;;;;;;5073412;28;20063;-73
2023/02/20 11:05:46;;;;;;;30.65;19.45;;;9.70;99.90;;;;;;5072503;28;20027;-73
2023/02/20 11:08:12;;;;;;;32.55;19.48;;;9.60;99.90;;;;;;5075106;28;20039;-74
2023/02/20 11:10:38;;;;;;;33.05;17.35;;;9.60;99.90;;;;;;5072079;28;20040;-75
2023/02/20 11:13:07;;;;;;;31.80;15.63;;;9.60;99.90;;;;;;5071175;28;20114;-74
2023/02/20 11:15:34;;;;;;;22.00;13.48;;;9.60;99.90;;;;;;5076672;28;20495;-73
2023/02/20 11:18:00;;;;;;;29.92;12.40;;;9.70;99.90;;;;;;5076398;28;20470;-74
2023/02/20 11:20:34;;;;;;;28.10;11.40;;;9.70;99.90;;;;;;5079049;28;20039;-75
2023/02/20 11:23:01;;;;;;;22.95;11.35;;;9.60;99.90;;;;;;5082516;28;20016;-74
2023/02/20 11:25:29;;;;;;;28.98;11.98;;;9.70;99.90;;;;;;5085275;28;20039;-74
2023/02/20 11:28:09;;;;;;;18.80;10.48;;;9.70;99.90;;;;;;5073671;28;20020;-74
2023/02/20 11:30:39;;;;;;;22.25;9.77;;;9.70;99.90;;;;;;5080876;28;20108;-74
2023/02/20 11:33:18;;;;;;;24.80;11.57;;;9.60;99.90;;;;;;5081491;28;20085;-75
2023/02/20 11:35:48;;;;;;;25.37;11.93;;;9.60;99.90;;;;;;5077353;28;20021;-74
2023/02/20 11:38:13;;;;;;;17.40;9.73;;;9.70;99.90;;;;;;5080823;28;20028;-75
2023/02/20 11:40:39;;;;;;;24.48;9.90;;;9.60;99.90;;;;;;5077763;28;20051;-75
2023/02/20 11:43:17;;;;;;;21.50;9.68;;;9.60;99.90;;;;;;5080589;28;20059;-74
2023/02/20 11:45:42;;;;;;;22.02;10.43;;;9.70;99.90;;;;;;5074097;28;20465;-75
2023/02/20 11:48:16;;;;;;;23.05;11.02;;;9.70;99.90;;;;;;5080086;28;20036;-74
2023/02/20 11:50:45;;;;;;;18.67;9.35;;;9.60;99.90;;;;;;5075901;28;20081;-74
2023/02/20 11:53:19;;;;;;;17.60;9.60;;;9.60;99.90;;;;;;5073540;28;20026;-75
2023/02/20 11:55:46;;;;;;;18.75;9.73;;;9.70;99.90;;;;;;5068836;28;20104;-75
2023/02/20 11:58:25;;;;;;;18.30;9.07;;;9.70;99.90;;;;;;5085759;28;20089;-75
2023/02/20 12:00:53;;;;;;;18.50;11.15;;;9.70;99.90;;;;;;5075905;28;20016;-74
2023/02/20 12:03:28;;;;;;;16.73;9.82;;;9.80;99.90;;;;;;5085975;28;20025;-74
2023/02/20 12:05:55;;;;;;;17.63;9.52;;;9.80;99.90;;;;;;5084622;28;20498;-74
2023/02/20 12:08:38;;;;;;;20.88;11.02;;;9.80;99.90;;;;;;5071201;28;20028;-75
2023/02/20 12:11:09;;;;;;;19.85;11.00;;;9.80;99.90;;;;;;5076514;28;20024;-75
2023/02/20 12:13:46;;;;;;;20.75;9.98;;;9.80;99.90;;;;;;5071335;28;20027;-75
2023/02/20 12:16:17;;;;;;;23.27;10.40;;;9.90;99.90;;;;;;5088472;28;20082;-74
2023/02/20 12:18:48;;;;;;;16.23;9.35;;;10.00;99.90;;;;;;5078565;28;20036;-75
2023/02/20 12:21:26;;;;;;;16.15;9.27;;;9.90;99.90;;;;;;5090258;28;20024;-74
2023/02/20 12:24:22;;;;;;;14.90;8.75;;;9.90;99.90;;;;;;5077129;28;20046;-74
2023/02/20 12:26:53;;;;;;;17.08;8.82;;;9.90;99.90;;;;;;5051941;28;20445;-76
2023/02/20 12:29:41;;;;;;;13.50;8.23;;;9.90;99.90;;;;;;5075753;28;20028;-75
2023/02/20 12:32:18;;;;;;;11.27;5.70;;;10.00;99.90;;;;;;5077182;28;20103;-73
2023/02/20 12:34:58;;;;;;;13.30;7.68;;;10.00;99.90;;;;;;5078902;28;20020;-74
2023/02/20 12:37:50;;;;;;;16.75;8.00;;;10.00;99.90;;;;;;5078599;28;20133;-73
2023/02/20 12:40:37;;;;;;;10.32;7.28;;;10.10;99.90;;;;;;5075047;28;20030;-75
2023/02/20 12:43:39;;;;;;;12.38;6.55;;;10.00;99.90;;;;;;5071762;28;20032;-75
2023/02/20 12:46:12;;;;;;;12.48;6.25;;;10.10;99.90;;;;;;5086849;28;20028;-75
2023/02/20 12:49:00;;;;;;;14.73;6.35;;;10.00;99.90;;;;;;5085778;28;20039;-74
2023/02/20 12:51:57;;;;;;;11.02;5.72;;;10.00;99.90;;;;;;5080679;28;20027;-74
2023/02/20 12:54:38;;;;;;;15.38;6.50;;;10.10;99.90;;;;;;5069000;28;20552;-74
2023/02/20 12:57:14;;;;;;;12.23;6.40;;;10.10;99.90;;;;;;5087929;28;20028;-73
2023/02/20 13:00:00;;;;;;;14.15;7.05;;;10.10;99.90;;;;;;5078822;28;20036;-75
2023/02/20 13:02:41;;;;;;;14.32;6.80;;;10.10;99.90;;;;;;5076293;28;20028;-74
2023/02/20 13:05:11;;;;;;;14.73;6.72;;;10.00;99.90;;;;;;5077869;28;20470;-73
2023/02/20 13:07:46;;;;;;;13.38;6.07;;;10.10;99.90;;;;;;5070405;28;20017;-74
2023/02/20 13:10:18;;;;;;;17.92;6.85;;;10.10;99.90;;;;;;5068906;28;20036;-74
2023/02/20 13:12:43;;;;;;;14.00;6.32;;;10.20;99.90;;;;;;5073540;28;20012;-74
2023/02/20 13:15:18;;;;;;;11.68;6.05;;;10.20;99.90;;;;;;5075683;28;20019;-74